sensor_id;sensor_type;location;lat;lon;timestamp;pressure;altitude;pressure_sealevel;temperature;humidity
27613;BME280;15036;48.094;-1.690;2023-05-22T00:00:21;101240.00;;;19.52;48.48
27613;BME280;15036;48.094;-1.690;2023-05-22T00:02:47;101228.25;;;19.22;49.29
27613;BME280;15036;48.094;-1.690;2023-05-22T00:05:14;101236.63;;;19.50;48.58
27613;BME280;15036;48.094;-1.690;2023-05-22T00:07:42;101241.25;;;19.10;49.43
27613;BME280;15036;48.094;-1.690;2023-05-22T00:10:08;101226.09;;;19.63;48.22
27613;BME280;15036;48.094;-1.690;2023-05-22T00:12:34;101223.84;;;19.09;49.25
27613;BME280;15036;48.094;-1.690;2023-05-22T00:14:59;101225.13;;;19.18;49.22
27613;BME280;15036;48.094;-1.690;2023-05-22T00:17:25;101225.09;;;19.30;48.69
27613;BME280;15036;48.094;-1.690;2023-05-22T00:19:51;101217.91;;;19.29;48.71
27613;BME280;15036;48.094;-1.690;2023-05-22T00:22:20;101222.13;;;19.31;48.81
27613;BME280;15036;48.094;-1.690;2023-05-22T00:24:45;101215.66;;;19.54;48.07
27613;BME280;15036;48.094;-1.690;2023-05-22T00:27:11;101216.66;;;19.48;48.04
27613;BME280;15036;48.094;-1.690;2023-05-22T00:29:36;101218.06;;;19.11;48.98
27613;BME280;15036;48.094;-1.690;2023-05-22T00:32:01;101218.91;;;18.99;48.83
27613;BME280;15036;48.094;-1.690;2023-05-22T00:34:27;101226.25;;;19.17;48.90
27613;BME280;15036;48.094;-1.690;2023-05-22T00:36:52;101222.03;;;19.15;48.65
27613;BME280;15036;48.094;-1.690;2023-05-22T00:39:17;101217.13;;;18.93;49.39
27613;BME280;15036;48.094;-1.690;2023-05-22T00:41:43;101215.00;;;19.24;48.56
27613;BME280;15036;48.094;-1.690;2023-05-22T00:44:08;101222.19;;;19.48;48.01
27613;BME280;15036;48.094;-1.690;2023-05-22T00:46:34;101221.09;;;19.77;47.21
27613;BME280;15036;48.094;-1.690;2023-05-22T00:49:00;101218.97;;;19.39;48.02
27613;BME280;15036;48.094;-1.690;2023-05-22T00:51:26;101226.06;;;19.35;48.22
27613;BME280;15036;48.094;-1.690;2023-05-22T00:53:52;101220.06;;;19.38;48.13
27613;BME280;15036;48.094;-1.690;2023-05-22T00:56:19;101229.00;;;19.05;48.75
27613;BME280;15036;48.094;-1.690;2023-05-22T00:58:45;101217.63;;;18.79;49.62
27613;BME280;15036;48.094;-1.690;2023-05-22T01:01:11;101217.22;;;18.98;49.14
27613;BME280;15036;48.094;-1.690;2023-05-22T01:03:41;101212.69;;;18.81;49.64
27613;BME280;15036;48.094;-1.690;2023-05-22T01:06:11;101215.41;;;19.04;49.10
27613;BME280;15036;48.094;-1.690;2023-05-22T01:08:37;101214.13;;;18.49;50.07
27613;BME280;15036;48.094;-1.690;2023-05-22T01:14:22;101216.88;;;18.72;49.73
27613;BME280;15036;48.094;-1.690;2023-05-22T01:17:01;101219.81;;;19.28;48.54
27613;BME280;15036;48.094;-1.690;2023-05-22T01:20:05;101217.00;;;18.88;49.45
27613;BME280;15036;48.094;-1.690;2023-05-22T01:31:04;101217.19;;;19.33;48.27
27613;BME280;15036;48.094;-1.690;2023-05-22T01:33:44;101218.75;;;19.41;48.35
27613;BME280;15036;48.094;-1.690;2023-05-22T01:36:12;101220.38;;;18.79;49.92
27613;BME280;15036;48.094;-1.690;2023-05-22T01:38:40;101231.81;;;18.59;49.95
27613;BME280;15036;48.094;-1.690;2023-05-22T01:41:06;101225.78;;;18.97;49.58
27613;BME280;15036;48.094;-1.690;2023-05-22T01:43:31;101221.94;;;18.75;49.95
27613;BME280;15036;48.094;-1.690;2023-05-22T01:45:58;101230.06;;;19.16;49.21
27613;BME280;15036;48.094;-1.690;2023-05-22T01:48:23;101230.53;;;19.25;49.03
27613;BME280;15036;48.094;-1.690;2023-05-22T01:50:50;101220.75;;;18.71;50.06
27613;BME280;15036;48.094;-1.690;2023-05-22T01:53:27;101222.78;;;18.87;49.99
27613;BME280;15036;48.094;-1.690;2023-05-22T01:56:14;101221.59;;;18.83;49.94
27613;BME280;15036;48.094;-1.690;2023-05-22T01:58:48;101216.06;;;18.83;49.88
27613;BME280;15036;48.094;-1.690;2023-05-22T02:01:18;101230.97;;;18.59;50.53
27613;BME280;15036;48.094;-1.690;2023-05-22T02:03:44;101220.84;;;18.76;50.15
27613;BME280;15036;48.094;-1.690;2023-05-22T02:06:12;101218.91;;;18.99;49.46
27613;BME280;15036;48.094;-1.690;2023-05-22T02:08:39;101216.78;;;18.78;50.01
27613;BME280;15036;48.094;-1.690;2023-05-22T02:11:06;101220.75;;;18.59;50.68
27613;BME280;15036;48.094;-1.690;2023-05-22T02:13:34;101224.91;;;18.39;51.25
27613;BME280;15036;48.094;-1.690;2023-05-22T02:16:00;101225.81;;;18.85;50.08
27613;BME280;15036;48.094;-1.690;2023-05-22T02:18:28;101226.03;;;18.84;50.17
27613;BME280;15036;48.094;-1.690;2023-05-22T02:20:58;101222.38;;;19.18;49.28
27613;BME280;15036;48.094;-1.690;2023-05-22T02:23:24;101215.09;;;18.43;51.17
27613;BME280;15036;48.094;-1.690;2023-05-22T02:25:50;101213.16;;;18.43;50.88
27613;BME280;15036;48.094;-1.690;2023-05-22T02:28:16;101212.78;;;18.86;50.03
27613;BME280;15036;48.094;-1.690;2023-05-22T02:30:41;101205.00;;;18.71;50.38
27613;BME280;15036;48.094;-1.690;2023-05-22T02:33:07;101210.63;;;18.76;50.07
27613;BME280;15036;48.094;-1.690;2023-05-22T02:35:33;101200.75;;;18.34;51.20
27613;BME280;15036;48.094;-1.690;2023-05-22T02:37:59;101202.00;;;18.61;50.94
27613;BME280;15036;48.094;-1.690;2023-05-22T02:40:25;101202.19;;;18.25;51.64
27613;BME280;15036;48.094;-1.690;2023-05-22T02:42:50;101196.41;;;18.38;51.06
27613;BME280;15036;48.094;-1.690;2023-05-22T02:45:16;101199.94;;;18.45;51.16
27613;BME280;15036;48.094;-1.690;2023-05-22T02:47:41;101205.56;;;18.39;51.58
27613;BME280;15036;48.094;-1.690;2023-05-22T02:50:07;101208.25;;;18.45;51.33
27613;BME280;15036;48.094;-1.690;2023-05-22T02:52:32;101193.28;;;18.35;51.18
27613;BME280;15036;48.094;-1.690;2023-05-22T02:54:59;101203.13;;;18.31;51.87
27613;BME280;15036;48.094;-1.690;2023-05-22T02:57:25;101210.66;;;18.53;51.39
27613;BME280;15036;48.094;-1.690;2023-05-22T02:59:51;101210.41;;;18.55;51.09
27613;BME280;15036;48.094;-1.690;2023-05-22T03:02:17;101206.31;;;18.57;50.87
27613;BME280;15036;48.094;-1.690;2023-05-22T03:04:42;101215.09;;;18.43;51.27
27613;BME280;15036;48.094;-1.690;2023-05-22T03:07:08;101210.00;;;18.28;51.85
27613;BME280;15036;48.094;-1.690;2023-05-22T03:09:34;101208.44;;;18.32;51.69
27613;BME280;15036;48.094;-1.690;2023-05-22T03:12:00;101212.28;;;18.31;51.69
27613;BME280;15036;48.094;-1.690;2023-05-22T03:14:25;101207.94;;;18.12;52.42
27613;BME280;15036;48.094;-1.690;2023-05-22T03:16:50;101211.16;;;18.20;52.35
27613;BME280;15036;48.094;-1.690;2023-05-22T03:19:18;101210.53;;;17.95;53.09
27613;BME280;15036;48.094;-1.690;2023-05-22T03:21:44;101209.31;;;17.91;52.91
27613;BME280;15036;48.094;-1.690;2023-05-22T03:24:09;101205.28;;;18.05;52.76
27613;BME280;15036;48.094;-1.690;2023-05-22T03:26:36;101215.41;;;18.23;52.50
27613;BME280;15036;48.094;-1.690;2023-05-22T03:29:02;101214.94;;;18.38;52.37
27613;BME280;15036;48.094;-1.690;2023-05-22T03:31:28;101213.16;;;18.55;51.67
27613;BME280;15036;48.094;-1.690;2023-05-22T03:33:57;101204.75;;;18.61;51.69
27613;BME280;15036;48.094;-1.690;2023-05-22T03:36:22;101213.16;;;18.66;51.70
27613;BME280;15036;48.094;-1.690;2023-05-22T03:38:48;101211.00;;;18.45;52.15
27613;BME280;15036;48.094;-1.690;2023-05-22T03:41:13;101212.00;;;18.09;53.10
27613;BME280;15036;48.094;-1.690;2023-05-22T03:43:38;101210.50;;;18.48;52.45
27613;BME280;15036;48.094;-1.690;2023-05-22T03:46:04;101214.88;;;18.14;53.27
27613;BME280;15036;48.094;-1.690;2023-05-22T03:48:30;101224.25;;;18.02;54.22
27613;BME280;15036;48.094;-1.690;2023-05-22T03:50:55;101217.78;;;17.67;55.22
27613;BME280;15036;48.094;-1.690;2023-05-22T03:53:21;101216.94;;;17.66;55.27
27613;BME280;15036;48.094;-1.690;2023-05-22T03:55:46;101216.00;;;17.72;55.28
27613;BME280;15036;48.094;-1.690;2023-05-22T03:58:11;101221.19;;;17.80;54.77
27613;BME280;15036;48.094;-1.690;2023-05-22T04:00:37;101213.22;;;17.72;55.12
27613;BME280;15036;48.094;-1.690;2023-05-22T04:03:03;101212.09;;;18.03;54.75
27613;BME280;15036;48.094;-1.690;2023-05-22T04:05:28;101208.22;;;18.34;53.67
27613;BME280;15036;48.094;-1.690;2023-05-22T04:07:55;101203.63;;;18.28;53.79
27613;BME280;15036;48.094;-1.690;2023-05-22T04:10:21;101212.72;;;18.05;54.82
27613;BME280;15036;48.094;-1.690;2023-05-22T04:12:48;101212.84;;;17.98;54.70
27613;BME280;15036;48.094;-1.690;2023-05-22T04:15:13;101212.66;;;17.82;55.14
27613;BME280;15036;48.094;-1.690;2023-05-22T04:17:39;101213.28;;;17.95;54.91
27613;BME280;15036;48.094;-1.690;2023-05-22T04:20:06;101214.50;;;17.58;55.98
27613;BME280;15036;48.094;-1.690;2023-05-22T04:22:32;101214.84;;;17.91;55.06
27613;BME280;15036;48.094;-1.690;2023-05-22T04:24:58;101216.69;;;18.09;54.45
27613;BME280;15036;48.094;-1.690;2023-05-22T04:27:23;101215.50;;;17.75;55.20
27613;BME280;15036;48.094;-1.690;2023-05-22T04:29:49;101211.28;;;17.73;55.23
27613;BME280;15036;48.094;-1.690;2023-05-22T04:32:15;101215.69;;;17.92;55.18
27613;BME280;15036;48.094;-1.690;2023-05-22T04:34:46;101219.72;;;17.78;55.14
27613;BME280;15036;48.094;-1.690;2023-05-22T04:37:12;101220.53;;;17.67;55.39
27613;BME280;15036;48.094;-1.690;2023-05-22T04:39:39;101217.84;;;17.90;55.03
27613;BME280;15036;48.094;-1.690;2023-05-22T04:42:05;101220.53;;;17.67;55.37
27613;BME280;15036;48.094;-1.690;2023-05-22T04:44:31;101226.13;;;17.90;54.85
27613;BME280;15036;48.094;-1.690;2023-05-22T04:47:01;101219.31;;;17.45;56.22
27613;BME280;15036;48.094;-1.690;2023-05-22T04:49:26;101223.50;;;17.47;56.31
27613;BME280;15036;48.094;-1.690;2023-05-22T04:51:53;101219.53;;;17.61;55.70
27613;BME280;15036;48.094;-1.690;2023-05-22T04:54:19;101232.78;;;17.71;55.52
27613;BME280;15036;48.094;-1.690;2023-05-22T04:56:44;101237.34;;;17.77;55.22
27613;BME280;15036;48.094;-1.690;2023-05-22T04:59:10;101233.25;;;17.68;55.38
27613;BME280;15036;48.094;-1.690;2023-05-22T05:01:35;101232.94;;;17.76;55.21
27613;BME280;15036;48.094;-1.690;2023-05-22T05:04:02;101236.81;;;18.28;53.99
27613;BME280;15036;48.094;-1.690;2023-05-22T05:06:27;101237.03;;;17.85;54.67
27613;BME280;15036;48.094;-1.690;2023-05-22T05:08:52;101237.31;;;17.65;55.36
27613;BME280;15036;48.094;-1.690;2023-05-22T05:11:19;101236.38;;;18.01;54.69
27613;BME280;15036;48.094;-1.690;2023-05-22T05:13:45;101237.28;;;17.83;54.96
27613;BME280;15036;48.094;-1.690;2023-05-22T05:16:10;101240.78;;;17.90;54.95
27613;BME280;15036;48.094;-1.690;2023-05-22T05:18:36;101244.50;;;17.55;55.50
27613;BME280;15036;48.094;-1.690;2023-05-22T05:21:01;101247.69;;;17.52;55.93
27613;BME280;15036;48.094;-1.690;2023-05-22T05:23:26;101243.38;;;17.74;55.52
27613;BME280;15036;48.094;-1.690;2023-05-22T05:25:52;101244.72;;;17.83;55.33
27613;BME280;15036;48.094;-1.690;2023-05-22T05:28:18;101241.63;;;17.91;54.86
27613;BME280;15036;48.094;-1.690;2023-05-22T05:30:43;101247.63;;;17.88;54.91
27613;BME280;15036;48.094;-1.690;2023-05-22T05:33:09;101242.84;;;17.65;55.57
27613;BME280;15036;48.094;-1.690;2023-05-22T05:35:34;101244.25;;;17.86;55.20
27613;BME280;15036;48.094;-1.690;2023-05-22T05:38:00;101243.78;;;18.30;54.14
27613;BME280;15036;48.094;-1.690;2023-05-22T05:40:25;101236.94;;;18.44;53.50
27613;BME280;15036;48.094;-1.690;2023-05-22T05:42:51;101243.28;;;18.22;53.94
27613;BME280;15036;48.094;-1.690;2023-05-22T05:45:16;101244.22;;;18.15;54.32
27613;BME280;15036;48.094;-1.690;2023-05-22T05:47:42;101249.63;;;17.81;55.37
27613;BME280;15036;48.094;-1.690;2023-05-22T05:50:07;101250.44;;;17.70;55.48
27613;BME280;15036;48.094;-1.690;2023-05-22T05:52:33;101245.16;;;17.68;55.59
27613;BME280;15036;48.094;-1.690;2023-05-22T05:54:59;101245.91;;;17.87;55.44
27613;BME280;15036;48.094;-1.690;2023-05-22T05:57:28;101249.44;;;18.35;53.72
27613;BME280;15036;48.094;-1.690;2023-05-22T05:59:53;101250.38;;;17.88;54.90
27613;BME280;15036;48.094;-1.690;2023-05-22T06:02:19;101254.94;;;18.35;53.50
27613;BME280;15036;48.094;-1.690;2023-05-22T06:04:44;101245.16;;;18.85;52.61
27613;BME280;15036;48.094;-1.690;2023-05-22T06:07:14;101235.53;;;18.76;52.81
27613;BME280;15036;48.094;-1.690;2023-05-22T06:09:39;101246.25;;;18.50;53.05
27613;BME280;15036;48.094;-1.690;2023-05-22T06:12:05;101247.91;;;18.51;52.86
27613;BME280;15036;48.094;-1.690;2023-05-22T06:14:31;101242.13;;;18.52;52.62
27613;BME280;15036;48.094;-1.690;2023-05-22T06:16:56;101241.78;;;19.07;51.58
27613;BME280;15036;48.094;-1.690;2023-05-22T06:19:22;101242.75;;;19.00;51.66
27613;BME280;15036;48.094;-1.690;2023-05-22T06:21:47;101241.88;;;19.23;51.42
27613;BME280;15036;48.094;-1.690;2023-05-22T06:24:13;101244.41;;;19.01;51.39
27613;BME280;15036;48.094;-1.690;2023-05-22T06:26:38;101238.88;;;18.90;51.72
27613;BME280;15036;48.094;-1.690;2023-05-22T06:29:03;101252.84;;;19.07;51.49
27613;BME280;15036;48.094;-1.690;2023-05-22T06:31:30;101263.66;;;19.31;50.80
27613;BME280;15036;48.094;-1.690;2023-05-22T06:33:59;101261.75;;;19.09;51.09
27613;BME280;15036;48.094;-1.690;2023-05-22T06:36:25;101257.06;;;18.63;51.61
27613;BME280;15036;48.094;-1.690;2023-05-22T06:38:51;101259.94;;;19.14;50.95
27613;BME280;15036;48.094;-1.690;2023-05-22T06:41:18;101270.09;;;19.60;49.57
27613;BME280;15036;48.094;-1.690;2023-05-22T06:43:43;101273.34;;;19.85;49.26
27613;BME280;15036;48.094;-1.690;2023-05-22T06:46:09;101277.72;;;19.53;49.42
27613;BME280;15036;48.094;-1.690;2023-05-22T06:48:34;101285.47;;;19.67;49.29
27613;BME280;15036;48.094;-1.690;2023-05-22T06:51:00;101287.00;;;19.86;48.77
27613;BME280;15036;48.094;-1.690;2023-05-22T06:53:25;101294.38;;;19.69;49.03
27613;BME280;15036;48.094;-1.690;2023-05-22T06:55:51;101289.94;;;20.25;47.70
27613;BME280;15036;48.094;-1.690;2023-05-22T06:58:16;101303.25;;;20.39;47.65
27613;BME280;15036;48.094;-1.690;2023-05-22T07:00:42;101299.41;;;20.12;48.19
27613;BME280;15036;48.094;-1.690;2023-05-22T07:03:07;101294.41;;;20.42;47.15
27613;BME280;15036;48.094;-1.690;2023-05-22T07:05:32;101303.28;;;20.56;46.96
27613;BME280;15036;48.094;-1.690;2023-05-22T07:07:58;101301.50;;;20.50;47.07
27613;BME280;15036;48.094;-1.690;2023-05-22T07:10:23;101294.94;;;19.83;48.42
27613;BME280;15036;48.094;-1.690;2023-05-22T07:12:51;101305.97;;;20.51;47.09
27613;BME280;15036;48.094;-1.690;2023-05-22T07:15:17;101298.63;;;20.17;47.17
27613;BME280;15036;48.094;-1.690;2023-05-22T07:17:42;101309.28;;;20.36;46.74
27613;BME280;15036;48.094;-1.690;2023-05-22T07:20:08;101303.28;;;20.72;45.92
27613;BME280;15036;48.094;-1.690;2023-05-22T07:22:35;101300.00;;;21.09;45.45
27613;BME280;15036;48.094;-1.690;2023-05-22T07:25:00;101298.72;;;20.66;46.05
27613;BME280;15036;48.094;-1.690;2023-05-22T07:27:25;101297.38;;;20.69;46.00
27613;BME280;15036;48.094;-1.690;2023-05-22T07:29:51;101298.59;;;21.28;45.24
27613;BME280;15036;48.094;-1.690;2023-05-22T07:32:16;101305.47;;;20.70;46.65
27613;BME280;15036;48.094;-1.690;2023-05-22T07:34:41;101300.25;;;21.07;46.01
27613;BME280;15036;48.094;-1.690;2023-05-22T07:37:11;101314.47;;;20.61;46.59
27613;BME280;15036;48.094;-1.690;2023-05-22T07:39:36;101306.00;;;20.23;47.41
27613;BME280;15036;48.094;-1.690;2023-05-22T07:42:02;101302.50;;;20.60;46.65
27613;BME280;15036;48.094;-1.690;2023-05-22T07:44:29;101309.63;;;20.23;47.37
27613;BME280;15036;48.094;-1.690;2023-05-22T07:46:54;101310.75;;;20.72;46.67
27613;BME280;15036;48.094;-1.690;2023-05-22T07:49:20;101308.50;;;20.69;46.80
27613;BME280;15036;48.094;-1.690;2023-05-22T07:51:47;101308.34;;;20.76;46.19
27613;BME280;15036;48.094;-1.690;2023-05-22T07:54:13;101307.66;;;21.02;45.87
27613;BME280;15036;48.094;-1.690;2023-05-22T07:56:41;101312.13;;;20.25;47.70
27613;BME280;15036;48.094;-1.690;2023-05-22T07:59:07;101310.53;;;20.73;46.59
27613;BME280;15036;48.094;-1.690;2023-05-22T08:01:37;101312.44;;;21.23;45.70
27613;BME280;15036;48.094;-1.690;2023-05-22T08:04:03;101314.34;;;21.39;45.11
27613;BME280;15036;48.094;-1.690;2023-05-22T08:06:29;101316.41;;;21.70;44.94
27613;BME280;15036;48.094;-1.690;2023-05-22T08:08:55;101314.97;;;21.08;45.38
27613;BME280;15036;48.094;-1.690;2023-05-22T08:11:20;101313.69;;;21.75;43.98
27613;BME280;15036;48.094;-1.690;2023-05-22T08:13:46;101308.47;;;22.00;43.87
27613;BME280;15036;48.094;-1.690;2023-05-22T08:16:11;101312.31;;;21.94;43.71
27613;BME280;15036;48.094;-1.690;2023-05-22T08:18:37;101309.94;;;21.43;44.28
27613;BME280;15036;48.094;-1.690;2023-05-22T08:21:02;101311.16;;;21.74;44.27
27613;BME280;15036;48.094;-1.690;2023-05-22T08:23:28;101302.06;;;22.26;43.13
27613;BME280;15036;48.094;-1.690;2023-05-22T08:25:54;101312.34;;;21.78;43.80
27613;BME280;15036;48.094;-1.690;2023-05-22T08:28:20;101307.53;;;21.51;44.20
27613;BME280;15036;48.094;-1.690;2023-05-22T08:30:45;101311.94;;;20.93;45.27
27613;BME280;15036;48.094;-1.690;2023-05-22T08:33:11;101299.88;;;21.20;44.64
27613;BME280;15036;48.094;-1.690;2023-05-22T08:35:36;101298.56;;;21.44;44.29
27613;BME280;15036;48.094;-1.690;2023-05-22T08:38:01;101300.59;;;21.71;43.83
27613;BME280;15036;48.094;-1.690;2023-05-22T08:40:37;101301.03;;;21.63;44.15
27613;BME280;15036;48.094;-1.690;2023-05-22T08:43:06;101299.19;;;21.73;43.59
27613;BME280;15036;48.094;-1.690;2023-05-22T08:45:34;101301.28;;;22.04;43.11
27613;BME280;15036;48.094;-1.690;2023-05-22T08:48:04;101296.34;;;22.38;42.69
27613;BME280;15036;48.094;-1.690;2023-05-22T08:50:30;101289.69;;;22.12;42.82
27613;BME280;15036;48.094;-1.690;2023-05-22T08:52:59;101299.34;;;21.83;43.31
27613;BME280;15036;48.094;-1.690;2023-05-22T08:55:26;101297.66;;;22.30;42.83
27613;BME280;15036;48.094;-1.690;2023-05-22T08:57:53;101295.63;;;22.53;41.88
27613;BME280;15036;48.094;-1.690;2023-05-22T09:00:20;101291.06;;;21.23;44.51
27613;BME280;15036;48.094;-1.690;2023-05-22T09:02:45;101291.22;;;21.98;42.91
27613;BME280;15036;48.094;-1.690;2023-05-22T09:05:11;101290.94;;;22.26;42.11
27613;BME280;15036;48.094;-1.690;2023-05-22T09:07:37;101296.78;;;21.98;42.16
27613;BME280;15036;48.094;-1.690;2023-05-22T09:10:05;101292.31;;;22.24;42.02
27613;BME280;15036;48.094;-1.690;2023-05-22T09:12:31;101284.72;;;22.73;41.40
27613;BME280;15036;48.094;-1.690;2023-05-22T09:15:07;101288.03;;;22.70;41.45
27613;BME280;15036;48.094;-1.690;2023-05-22T09:17:34;101287.81;;;23.18;40.67
27613;BME280;15036;48.094;-1.690;2023-05-22T09:19:59;101285.56;;;22.47;41.62
27613;BME280;15036;48.094;-1.690;2023-05-22T09:22:34;101279.47;;;22.18;41.63
27613;BME280;15036;48.094;-1.690;2023-05-22T09:25:02;101284.44;;;22.16;41.82
27613;BME280;15036;48.094;-1.690;2023-05-22T09:27:27;101293.91;;;21.93;41.65
27613;BME280;15036;48.094;-1.690;2023-05-22T09:29:54;101290.91;;;22.53;41.07
27613;BME280;15036;48.094;-1.690;2023-05-22T09:32:21;101287.09;;;22.91;40.69
27613;BME280;15036;48.094;-1.690;2023-05-22T09:34:46;101286.78;;;22.56;40.78
27613;BME280;15036;48.094;-1.690;2023-05-22T09:37:12;101295.53;;;23.06;40.20
27613;BME280;15036;48.094;-1.690;2023-05-22T09:39:39;101289.06;;;22.95;40.72
27613;BME280;15036;48.094;-1.690;2023-05-22T09:42:07;101290.66;;;23.23;40.50
27613;BME280;15036;48.094;-1.690;2023-05-22T09:44:34;101286.56;;;23.36;39.54
27613;BME280;15036;48.094;-1.690;2023-05-22T09:46:59;101286.38;;;23.05;39.82
27613;BME280;15036;48.094;-1.690;2023-05-22T09:49:25;101282.00;;;23.76;38.97
27613;BME280;15036;48.094;-1.690;2023-05-22T09:51:53;101284.16;;;23.59;39.31
27613;BME280;15036;48.094;-1.690;2023-05-22T09:54:19;101288.31;;;24.24;38.49
27613;BME280;15036;48.094;-1.690;2023-05-22T09:56:49;101282.69;;;24.03;38.74
27613;BME280;15036;48.094;-1.690;2023-05-22T09:59:20;101286.38;;;24.24;38.36
27613;BME280;15036;48.094;-1.690;2023-05-22T10:01:50;101267.97;;;24.78;38.14
27613;BME280;15036;48.094;-1.690;2023-05-22T10:04:18;101283.69;;;23.77;39.65
27613;BME280;15036;48.094;-1.690;2023-05-22T10:06:47;101281.22;;;23.29;40.33
27613;BME280;15036;48.094;-1.690;2023-05-22T10:09:14;101278.66;;;23.74;39.33
27613;BME280;15036;48.094;-1.690;2023-05-22T10:11:43;101291.16;;;23.15;40.02
27613;BME280;15036;48.094;-1.690;2023-05-22T10:14:10;101287.72;;;24.17;38.54
27613;BME280;15036;48.094;-1.690;2023-05-22T10:16:37;101289.44;;;23.51;39.42
27613;BME280;15036;48.094;-1.690;2023-05-22T10:19:02;101287.34;;;23.93;38.63
27613;BME280;15036;48.094;-1.690;2023-05-22T10:21:29;101289.03;;;23.99;38.76
27613;BME280;15036;48.094;-1.690;2023-05-22T10:23:57;101286.09;;;24.51;38.06
27613;BME280;15036;48.094;-1.690;2023-05-22T10:26:23;101285.25;;;24.20;38.21
27613;BME280;15036;48.094;-1.690;2023-05-22T10:29:10;101276.63;;;24.42;37.33
27613;BME280;15036;48.094;-1.690;2023-05-22T10:31:44;101282.75;;;24.59;37.43
27613;BME280;15036;48.094;-1.690;2023-05-22T10:35:14;101276.56;;;24.06;37.42
27613;BME280;15036;48.094;-1.690;2023-05-22T10:40:10;101279.34;;;24.17;37.48
27613;BME280;15036;48.094;-1.690;2023-05-22T10:42:37;101268.78;;;24.59;36.59
27613;BME280;15036;48.094;-1.690;2023-05-22T10:45:05;101275.22;;;24.59;36.99
27613;BME280;15036;48.094;-1.690;2023-05-22T10:47:34;101279.13;;;24.53;37.22
27613;BME280;15036;48.094;-1.690;2023-05-22T10:52:29;101277.25;;;23.67;38.82
27613;BME280;15036;48.094;-1.690;2023-05-22T10:54:55;101275.19;;;24.14;37.74
27613;BME280;15036;48.094;-1.690;2023-05-22T10:57:23;101283.19;;;23.95;38.14
27613;BME280;15036;48.094;-1.690;2023-05-22T10:59:49;101281.25;;;23.96;37.40
27613;BME280;15036;48.094;-1.690;2023-05-22T11:02:24;101280.16;;;24.02;37.26
27613;BME280;15036;48.094;-1.690;2023-05-22T11:04:53;101267.06;;;24.02;36.95
27613;BME280;15036;48.094;-1.690;2023-05-22T11:07:19;101270.47;;;24.55;36.27
27613;BME280;15036;48.094;-1.690;2023-05-22T11:09:45;101266.00;;;24.84;35.51
27613;BME280;15036;48.094;-1.690;2023-05-22T11:12:18;101261.00;;;24.66;35.61
27613;BME280;15036;48.094;-1.690;2023-05-22T11:14:48;101269.34;;;25.06;34.97
27613;BME280;15036;48.094;-1.690;2023-05-22T11:17:28;101274.66;;;24.57;35.74
27613;BME280;15036;48.094;-1.690;2023-05-22T11:22:58;101267.84;;;23.98;36.86
27613;BME280;15036;48.094;-1.690;2023-05-22T11:25:25;101271.59;;;24.34;36.09
27613;BME280;15036;48.094;-1.690;2023-05-22T11:27:52;101260.06;;;25.26;34.59
27613;BME280;15036;48.094;-1.690;2023-05-22T11:30:18;101267.09;;;24.33;35.32
27613;BME280;15036;48.094;-1.690;2023-05-22T11:32:45;101269.38;;;24.66;34.32
27613;BME280;15036;48.094;-1.690;2023-05-22T11:35:19;101270.78;;;24.78;33.67
27613;BME280;15036;48.094;-1.690;2023-05-22T11:37:46;101272.97;;;24.66;33.68
27613;BME280;15036;48.094;-1.690;2023-05-22T11:40:19;101279.69;;;24.65;33.06
27613;BME280;15036;48.094;-1.690;2023-05-22T11:42:46;101276.06;;;24.65;33.16
27613;BME280;15036;48.094;-1.690;2023-05-22T11:45:12;101266.84;;;24.94;33.21
27613;BME280;15036;48.094;-1.690;2023-05-22T11:47:38;101263.16;;;25.14;32.08
27613;BME280;15036;48.094;-1.690;2023-05-22T11:50:04;101270.41;;;25.40;31.86
27613;BME280;15036;48.094;-1.690;2023-05-22T11:52:32;101273.09;;;25.70;31.68
27613;BME280;15036;48.094;-1.690;2023-05-22T11:54:57;101271.72;;;25.63;31.04
27613;BME280;15036;48.094;-1.690;2023-05-22T11:57:23;101264.59;;;25.91;30.99
27613;BME280;15036;48.094;-1.690;2023-05-22T11:59:48;101272.03;;;26.15;30.97
27613;BME280;15036;48.094;-1.690;2023-05-22T12:02:17;101277.19;;;24.89;32.34
27613;BME280;15036;48.094;-1.690;2023-05-22T12:04:43;101267.97;;;24.93;32.41
27613;BME280;15036;48.094;-1.690;2023-05-22T12:07:08;101266.38;;;25.66;31.52
27613;BME280;15036;48.094;-1.690;2023-05-22T12:09:34;101264.22;;;25.38;31.98
27613;BME280;15036;48.094;-1.690;2023-05-22T12:11:59;101268.25;;;24.97;32.26
27613;BME280;15036;48.094;-1.690;2023-05-22T12:14:26;101271.81;;;26.07;31.68
27613;BME280;15036;48.094;-1.690;2023-05-22T12:16:52;101263.81;;;26.96;30.84
27613;BME280;15036;48.094;-1.690;2023-05-22T12:19:17;101245.16;;;27.39;30.57
27613;BME280;15036;48.094;-1.690;2023-05-22T12:21:43;101261.38;;;27.66;29.92
27613;BME280;15036;48.094;-1.690;2023-05-22T12:24:09;101265.56;;;27.44;30.90
27613;BME280;15036;48.094;-1.690;2023-05-22T12:26:35;101259.94;;;27.68;30.20
27613;BME280;15036;48.094;-1.690;2023-05-22T12:29:01;101260.38;;;28.36;29.92
27613;BME280;15036;48.094;-1.690;2023-05-22T12:31:33;101267.88;;;28.41;30.09
27613;BME280;15036;48.094;-1.690;2023-05-22T12:34:06;101267.56;;;28.79;28.95
27613;BME280;15036;48.094;-1.690;2023-05-22T12:36:42;101267.66;;;29.20;29.16
27613;BME280;15036;48.094;-1.690;2023-05-22T12:39:09;101265.72;;;27.77;30.94
27613;BME280;15036;48.094;-1.690;2023-05-22T12:41:38;101264.50;;;27.40;31.66
27613;BME280;15036;48.094;-1.690;2023-05-22T12:44:04;101261.38;;;28.08;30.76
27613;BME280;15036;48.094;-1.690;2023-05-22T12:46:33;101253.50;;;27.44;31.93
27613;BME280;15036;48.094;-1.690;2023-05-22T12:48:59;101256.50;;;27.71;31.40
27613;BME280;15036;48.094;-1.690;2023-05-22T12:51:30;101252.25;;;28.35;30.40
27613;BME280;15036;48.094;-1.690;2023-05-22T12:54:00;101245.50;;;28.36;30.38
27613;BME280;15036;48.094;-1.690;2023-05-22T12:56:28;101246.66;;;27.74;31.78
27613;BME280;15036;48.094;-1.690;2023-05-22T12:58:53;101256.47;;;28.18;30.93